sensor_id;sensor_type;location;lat;lon;timestamp;P1;durP1;ratioP1;P2;durP2;ratioP2
4274;SDS011;2151;50.988;11.068;2022-10-31T00:02:21;122.27;;;5.70;;
4274;SDS011;2151;50.988;11.068;2022-10-31T00:04:47;122.17;;;5.63;;
4274;SDS011;2151;50.988;11.068;2022-10-31T00:07:14;122.00;;;5.83;;
4274;SDS011;2151;50.988;11.068;2022-10-31T00:09:40;122.77;;;6.23;;
4274;SDS011;2151;50.988;11.068;2022-10-31T00:12:07;122.27;;;5.70;;
4274;SDS011;2151;50.988;11.068;2022-10-31T00:14:33;122.40;;;6.07;;
4274;SDS011;2151;50.988;11.068;2022-10-31T00:16:59;123.03;;;5.97;;
4274;SDS011;2151;50.988;11.068;2022-10-31T00:19:26;122.37;;;5.70;;
4274;SDS011;2151;50.988;11.068;2022-10-31T00:21:52;122.07;;;5.90;;
4274;SDS011;2151;50.988;11.068;2022-10-31T00:24:18;122.37;;;5.93;;
4274;SDS011;2151;50.988;11.068;2022-10-31T00:26:45;122.07;;;5.87;;
4274;SDS011;2151;50.988;11.068;2022-10-31T00:29:11;122.87;;;6.20;;
4274;SDS011;2151;50.988;11.068;2022-10-31T00:31:38;122.57;;;6.00;;
4274;SDS011;2151;50.988;11.068;2022-10-31T00:34:05;122.57;;;5.97;;
4274;SDS011;2151;50.988;11.068;2022-10-31T00:36:31;122.17;;;5.53;;
4274;SDS011;2151;50.988;11.068;2022-10-31T00:38:57;122.37;;;6.07;;
4274;SDS011;2151;50.988;11.068;2022-10-31T00:41:24;131.70;;;6.60;;
4274;SDS011;2151;50.988;11.068;2022-10-31T00:43:50;122.47;;;6.07;;
4274;SDS011;2151;50.988;11.068;2022-10-31T00:46:17;122.10;;;5.90;;
4274;SDS011;2151;50.988;11.068;2022-10-31T00:48:43;122.13;;;6.07;;
4274;SDS011;2151;50.988;11.068;2022-10-31T00:51:10;124.00;;;6.00;;
4274;SDS011;2151;50.988;11.068;2022-10-31T00:53:36;121.40;;;5.70;;
4274;SDS011;2151;50.988;11.068;2022-10-31T00:56:03;122.13;;;5.77;;
4274;SDS011;2151;50.988;11.068;2022-10-31T00:58:29;121.93;;;5.67;;
4274;SDS011;2151;50.988;11.068;2022-10-31T01:00:56;122.70;;;5.67;;
4274;SDS011;2151;50.988;11.068;2022-10-31T01:03:26;122.63;;;5.73;;
4274;SDS011;2151;50.988;11.068;2022-10-31T01:08:23;122.63;;;5.40;;
4274;SDS011;2151;50.988;11.068;2022-10-31T01:11:00;122.30;;;5.37;;
4274;SDS011;2151;50.988;11.068;2022-10-31T01:13:26;122.20;;;5.90;;
4274;SDS011;2151;50.988;11.068;2022-10-31T01:15:53;121.80;;;5.97;;
4274;SDS011;2151;50.988;11.068;2022-10-31T01:18:20;122.47;;;5.67;;
4274;SDS011;2151;50.988;11.068;2022-10-31T01:20:46;122.40;;;5.70;;
4274;SDS011;2151;50.988;11.068;2022-10-31T01:23:12;122.20;;;5.77;;
4274;SDS011;2151;50.988;11.068;2022-10-31T01:25:39;122.50;;;5.53;;
4274;SDS011;2151;50.988;11.068;2022-10-31T01:28:05;122.70;;;6.10;;
4274;SDS011;2151;50.988;11.068;2022-10-31T01:30:31;122.47;;;5.73;;
4274;SDS011;2151;50.988;11.068;2022-10-31T01:32:58;122.47;;;5.70;;
4274;SDS011;2151;50.988;11.068;2022-10-31T01:35:24;122.60;;;5.53;;
4274;SDS011;2151;50.988;11.068;2022-10-31T01:37:51;122.87;;;5.83;;
4274;SDS011;2151;50.988;11.068;2022-10-31T01:40:17;122.80;;;5.93;;
4274;SDS011;2151;50.988;11.068;2022-10-31T01:42:43;122.70;;;5.90;;
4274;SDS011;2151;50.988;11.068;2022-10-31T01:45:10;122.50;;;5.97;;
4274;SDS011;2151;50.988;11.068;2022-10-31T01:50:09;123.30;;;6.07;;
4274;SDS011;2151;50.988;11.068;2022-10-31T01:52:38;123.23;;;5.93;;
4274;SDS011;2151;50.988;11.068;2022-10-31T01:55:07;121.10;;;5.70;;
4274;SDS011;2151;50.988;11.068;2022-10-31T01:57:35;122.30;;;5.50;;
4274;SDS011;2151;50.988;11.068;2022-10-31T02:00:05;122.57;;;5.53;;
4274;SDS011;2151;50.988;11.068;2022-10-31T02:02:32;123.00;;;5.70;;
4274;SDS011;2151;50.988;11.068;2022-10-31T02:05:00;123.03;;;5.73;;
4274;SDS011;2151;50.988;11.068;2022-10-31T02:07:30;122.37;;;6.40;;
4274;SDS011;2151;50.988;11.068;2022-10-31T02:09:58;123.27;;;6.10;;
4274;SDS011;2151;50.988;11.068;2022-10-31T02:12:26;124.10;;;5.50;;
4274;SDS011;2151;50.988;11.068;2022-10-31T02:14:53;122.23;;;5.87;;
4274;SDS011;2151;50.988;11.068;2022-10-31T02:17:19;123.10;;;5.60;;
4274;SDS011;2151;50.988;11.068;2022-10-31T02:19:50;122.93;;;5.70;;
4274;SDS011;2151;50.988;11.068;2022-10-31T02:28:13;123.07;;;5.73;;
4274;SDS011;2151;50.988;11.068;2022-10-31T02:30:22;122.87;;;5.67;;
4274;SDS011;2151;50.988;11.068;2022-10-31T02:32:58;123.17;;;5.77;;
4274;SDS011;2151;50.988;11.068;2022-10-31T02:41:26;122.97;;;5.60;;
4274;SDS011;2151;50.988;11.068;2022-10-31T02:49:01;123.80;;;5.87;;
4274;SDS011;2151;50.988;11.068;2022-10-31T02:51:29;124.57;;;5.70;;
4274;SDS011;2151;50.988;11.068;2022-10-31T02:53:56;123.80;;;5.77;;
4274;SDS011;2151;50.988;11.068;2022-10-31T02:56:22;122.87;;;5.73;;
4274;SDS011;2151;50.988;11.068;2022-10-31T02:58:49;122.30;;;5.60;;
4274;SDS011;2151;50.988;11.068;2022-10-31T03:01:22;123.20;;;5.97;;
4274;SDS011;2151;50.988;11.068;2022-10-31T03:09:26;123.40;;;5.80;;
4274;SDS011;2151;50.988;11.068;2022-10-31T03:12:11;123.27;;;5.57;;
4274;SDS011;2151;50.988;11.068;2022-10-31T03:17:07;123.47;;;6.13;;
4274;SDS011;2151;50.988;11.068;2022-10-31T03:19:39;123.30;;;5.83;;
4274;SDS011;2151;50.988;11.068;2022-10-31T03:22:21;122.40;;;5.57;;
4274;SDS011;2151;50.988;11.068;2022-10-31T03:24:48;123.70;;;5.97;;
4274;SDS011;2151;50.988;11.068;2022-10-31T03:27:17;124.03;;;6.03;;
4274;SDS011;2151;50.988;11.068;2022-10-31T03:29:45;123.47;;;5.60;;
4274;SDS011;2151;50.988;11.068;2022-10-31T03:32:13;123.47;;;5.80;;
4274;SDS011;2151;50.988;11.068;2022-10-31T03:34:41;123.47;;;6.13;;
4274;SDS011;2151;50.988;11.068;2022-10-31T03:37:10;122.87;;;5.80;;
4274;SDS011;2151;50.988;11.068;2022-10-31T03:39:37;123.40;;;5.40;;
4274;SDS011;2151;50.988;11.068;2022-10-31T03:42:06;123.67;;;5.83;;
4274;SDS011;2151;50.988;11.068;2022-10-31T03:44:34;123.37;;;5.67;;
4274;SDS011;2151;50.988;11.068;2022-10-31T03:47:01;123.60;;;5.90;;
4274;SDS011;2151;50.988;11.068;2022-10-31T03:49:29;122.80;;;5.60;;
4274;SDS011;2151;50.988;11.068;2022-10-31T03:52:02;123.70;;;5.63;;
4274;SDS011;2151;50.988;11.068;2022-10-31T03:54:35;126.27;;;6.20;;
4274;SDS011;2151;50.988;11.068;2022-10-31T04:00:05;123.57;;;6.23;;
4274;SDS011;2151;50.988;11.068;2022-10-31T04:02:32;123.00;;;5.63;;
4274;SDS011;2151;50.988;11.068;2022-10-31T04:05:00;123.57;;;6.00;;
4274;SDS011;2151;50.988;11.068;2022-10-31T04:07:30;123.20;;;5.67;;
4274;SDS011;2151;50.988;11.068;2022-10-31T04:09:58;124.53;;;5.93;;
4274;SDS011;2151;50.988;11.068;2022-10-31T04:12:26;123.30;;;5.57;;
4274;SDS011;2151;50.988;11.068;2022-10-31T04:14:54;123.37;;;5.80;;
4274;SDS011;2151;50.988;11.068;2022-10-31T04:17:21;125.17;;;6.50;;
4274;SDS011;2151;50.988;11.068;2022-10-31T04:19:48;123.77;;;5.77;;
4274;SDS011;2151;50.988;11.068;2022-10-31T04:22:14;123.50;;;5.80;;
4274;SDS011;2151;50.988;11.068;2022-10-31T04:24:41;123.63;;;5.93;;
4274;SDS011;2151;50.988;11.068;2022-10-31T04:27:07;132.50;;;6.63;;
4274;SDS011;2151;50.988;11.068;2022-10-31T04:29:34;124.87;;;6.57;;
4274;SDS011;2151;50.988;11.068;2022-10-31T04:32:00;123.47;;;6.10;;
4274;SDS011;2151;50.988;11.068;2022-10-31T04:34:26;123.77;;;5.87;;
4274;SDS011;2151;50.988;11.068;2022-10-31T04:36:53;123.17;;;5.60;;
4274;SDS011;2151;50.988;11.068;2022-10-31T04:39:19;124.20;;;5.77;;
4274;SDS011;2151;50.988;11.068;2022-10-31T04:41:51;124.20;;;6.13;;
4274;SDS011;2151;50.988;11.068;2022-10-31T04:44:18;124.00;;;6.17;;
4274;SDS011;2151;50.988;11.068;2022-10-31T04:46:44;128.77;;;6.40;;
4274;SDS011;2151;50.988;11.068;2022-10-31T04:49:10;123.77;;;6.10;;
4274;SDS011;2151;50.988;11.068;2022-10-31T04:51:37;123.77;;;5.87;;
4274;SDS011;2151;50.988;11.068;2022-10-31T04:54:03;124.10;;;5.73;;
4274;SDS011;2151;50.988;11.068;2022-10-31T04:56:30;123.83;;;5.93;;
4274;SDS011;2151;50.988;11.068;2022-10-31T04:58:56;123.87;;;5.80;;
4274;SDS011;2151;50.988;11.068;2022-10-31T05:01:22;123.97;;;6.00;;
4274;SDS011;2151;50.988;11.068;2022-10-31T05:03:49;123.57;;;5.53;;
4274;SDS011;2151;50.988;11.068;2022-10-31T05:06:15;123.87;;;5.57;;
4274;SDS011;2151;50.988;11.068;2022-10-31T05:08:42;123.50;;;5.63;;
4274;SDS011;2151;50.988;11.068;2022-10-31T05:11:09;124.53;;;6.20;;
4274;SDS011;2151;50.988;11.068;2022-10-31T05:13:35;124.07;;;6.20;;
4274;SDS011;2151;50.988;11.068;2022-10-31T05:16:01;123.93;;;6.17;;
4274;SDS011;2151;50.988;11.068;2022-10-31T05:18:29;123.90;;;5.90;;
4274;SDS011;2151;50.988;11.068;2022-10-31T05:20:55;128.20;;;6.10;;
4274;SDS011;2151;50.988;11.068;2022-10-31T05:23:21;124.20;;;5.87;;
4274;SDS011;2151;50.988;11.068;2022-10-31T05:25:48;124.20;;;5.90;;
4274;SDS011;2151;50.988;11.068;2022-10-31T05:28:14;124.10;;;5.70;;
4274;SDS011;2151;50.988;11.068;2022-10-31T05:30:40;124.07;;;5.90;;
4274;SDS011;2151;50.988;11.068;2022-10-31T05:33:07;124.63;;;6.17;;
4274;SDS011;2151;50.988;11.068;2022-10-31T05:35:33;123.70;;;5.70;;
4274;SDS011;2151;50.988;11.068;2022-10-31T05:37:59;123.73;;;5.57;;
4274;SDS011;2151;50.988;11.068;2022-10-31T05:40:26;124.13;;;5.77;;
4274;SDS011;2151;50.988;11.068;2022-10-31T05:42:54;124.13;;;6.13;;
4274;SDS011;2151;50.988;11.068;2022-10-31T05:45:20;124.40;;;5.87;;
4274;SDS011;2151;50.988;11.068;2022-10-31T05:47:54;123.97;;;5.97;;
4274;SDS011;2151;50.988;11.068;2022-10-31T05:50:21;123.97;;;5.80;;
4274;SDS011;2151;50.988;11.068;2022-10-31T05:52:53;123.87;;;5.47;;
4274;SDS011;2151;50.988;11.068;2022-10-31T05:55:20;134.53;;;7.40;;
4274;SDS011;2151;50.988;11.068;2022-10-31T05:57:46;124.20;;;6.00;;
4274;SDS011;2151;50.988;11.068;2022-10-31T06:00:12;124.07;;;5.87;;
4274;SDS011;2151;50.988;11.068;2022-10-31T06:02:39;124.37;;;6.27;;
4274;SDS011;2151;50.988;11.068;2022-10-31T06:05:05;124.37;;;5.50;;
4274;SDS011;2151;50.988;11.068;2022-10-31T06:07:33;123.47;;;5.60;;
4274;SDS011;2151;50.988;11.068;2022-10-31T06:10:00;124.13;;;5.83;;
4274;SDS011;2151;50.988;11.068;2022-10-31T06:12:27;124.27;;;5.63;;
4274;SDS011;2151;50.988;11.068;2022-10-31T06:14:55;123.70;;;5.97;;
4274;SDS011;2151;50.988;11.068;2022-10-31T06:17:22;124.13;;;5.73;;
4274;SDS011;2151;50.988;11.068;2022-10-31T06:19:48;124.40;;;5.60;;
4274;SDS011;2151;50.988;11.068;2022-10-31T06:22:20;123.87;;;5.67;;
4274;SDS011;2151;50.988;11.068;2022-10-31T06:24:46;123.40;;;5.73;;
4274;SDS011;2151;50.988;11.068;2022-10-31T06:27:12;122.97;;;5.93;;
4274;SDS011;2151;50.988;11.068;2022-10-31T06:29:39;124.57;;;6.00;;
4274;SDS011;2151;50.988;11.068;2022-10-31T06:32:05;123.80;;;5.53;;
4274;SDS011;2151;50.988;11.068;2022-10-31T06:34:31;123.43;;;5.50;;
4274;SDS011;2151;50.988;11.068;2022-10-31T06:36:58;125.17;;;6.30;;
4274;SDS011;2151;50.988;11.068;2022-10-31T06:39:25;124.97;;;6.00;;
4274;SDS011;2151;50.988;11.068;2022-10-31T06:41:51;124.67;;;6.23;;
4274;SDS011;2151;50.988;11.068;2022-10-31T06:44:18;124.10;;;5.77;;
4274;SDS011;2151;50.988;11.068;2022-10-31T06:46:45;124.83;;;5.93;;
4274;SDS011;2151;50.988;11.068;2022-10-31T06:49:12;124.67;;;6.47;;
4274;SDS011;2151;50.988;11.068;2022-10-31T06:51:38;124.60;;;6.07;;
4274;SDS011;2151;50.988;11.068;2022-10-31T06:54:04;124.17;;;5.70;;
4274;SDS011;2151;50.988;11.068;2022-10-31T06:56:31;124.87;;;6.63;;
4274;SDS011;2151;50.988;11.068;2022-10-31T06:58:57;124.70;;;6.10;;
4274;SDS011;2151;50.988;11.068;2022-10-31T07:01:24;124.30;;;6.13;;
4274;SDS011;2151;50.988;11.068;2022-10-31T07:03:50;124.73;;;5.77;;
4274;SDS011;2151;50.988;11.068;2022-10-31T07:06:17;124.03;;;5.97;;
4274;SDS011;2151;50.988;11.068;2022-10-31T07:08:43;125.00;;;6.13;;
4274;SDS011;2151;50.988;11.068;2022-10-31T07:11:09;124.80;;;6.30;;
4274;SDS011;2151;50.988;11.068;2022-10-31T07:13:37;125.07;;;6.03;;
4274;SDS011;2151;50.988;11.068;2022-10-31T07:16:04;124.67;;;6.50;;
4274;SDS011;2151;50.988;11.068;2022-10-31T07:18:30;124.37;;;5.77;;
4274;SDS011;2151;50.988;11.068;2022-10-31T07:20:56;124.70;;;5.87;;
4274;SDS011;2151;50.988;11.068;2022-10-31T07:23:23;124.20;;;5.73;;
4274;SDS011;2151;50.988;11.068;2022-10-31T07:25:54;124.30;;;5.67;;
4274;SDS011;2151;50.988;11.068;2022-10-31T07:28:20;123.70;;;5.77;;
4274;SDS011;2151;50.988;11.068;2022-10-31T07:30:50;124.27;;;5.97;;
4274;SDS011;2151;50.988;11.068;2022-10-31T07:33:17;123.87;;;6.27;;
4274;SDS011;2151;50.988;11.068;2022-10-31T07:35:43;125.37;;;6.10;;
4274;SDS011;2151;50.988;11.068;2022-10-31T07:38:10;123.67;;;5.90;;
4274;SDS011;2151;50.988;11.068;2022-10-31T07:40:36;124.30;;;5.80;;
4274;SDS011;2151;50.988;11.068;2022-10-31T07:43:03;124.37;;;5.87;;
4274;SDS011;2151;50.988;11.068;2022-10-31T07:45:31;123.87;;;5.77;;
4274;SDS011;2151;50.988;11.068;2022-10-31T07:47:58;124.17;;;5.83;;
4274;SDS011;2151;50.988;11.068;2022-10-31T07:50:26;123.87;;;5.83;;
4274;SDS011;2151;50.988;11.068;2022-10-31T07:53:02;123.37;;;5.63;;
4274;SDS011;2151;50.988;11.068;2022-10-31T07:55:29;123.30;;;5.83;;
4274;SDS011;2151;50.988;11.068;2022-10-31T07:57:59;123.50;;;5.87;;
4274;SDS011;2151;50.988;11.068;2022-10-31T08:00:27;123.00;;;5.67;;
4274;SDS011;2151;50.988;11.068;2022-10-31T08:03:00;123.07;;;5.93;;
4274;SDS011;2151;50.988;11.068;2022-10-31T08:05:28;123.40;;;6.00;;
4274;SDS011;2151;50.988;11.068;2022-10-31T08:07:55;122.03;;;5.70;;
4274;SDS011;2151;50.988;11.068;2022-10-31T08:10:21;122.47;;;5.40;;
4274;SDS011;2151;50.988;11.068;2022-10-31T08:12:54;122.20;;;5.50;;
4274;SDS011;2151;50.988;11.068;2022-10-31T08:15:21;122.50;;;5.63;;
4274;SDS011;2151;50.988;11.068;2022-10-31T08:17:47;121.70;;;5.53;;
4274;SDS011;2151;50.988;11.068;2022-10-31T08:20:13;121.67;;;5.47;;
4274;SDS011;2151;50.988;11.068;2022-10-31T08:22:40;121.67;;;5.67;;
4274;SDS011;2151;50.988;11.068;2022-10-31T08:25:09;121.90;;;5.60;;
4274;SDS011;2151;50.988;11.068;2022-10-31T08:27:35;121.20;;;5.93;;
4274;SDS011;2151;50.988;11.068;2022-10-31T08:30:02;121.83;;;5.70;;
4274;SDS011;2151;50.988;11.068;2022-10-31T08:32:28;121.37;;;5.83;;
4274;SDS011;2151;50.988;11.068;2022-10-31T08:34:55;121.77;;;6.07;;
4274;SDS011;2151;50.988;11.068;2022-10-31T08:37:21;121.73;;;5.90;;
4274;SDS011;2151;50.988;11.068;2022-10-31T08:39:47;122.60;;;6.60;;
4274;SDS011;2151;50.988;11.068;2022-10-31T08:42:14;121.70;;;6.37;;
4274;SDS011;2151;50.988;11.068;2022-10-31T08:44:40;122.87;;;6.80;;
4274;SDS011;2151;50.988;11.068;2022-10-31T08:47:07;123.07;;;7.10;;
4274;SDS011;2151;50.988;11.068;2022-10-31T08:49:34;120.93;;;6.53;;
4274;SDS011;2151;50.988;11.068;2022-10-31T08:52:01;121.40;;;6.70;;
4274;SDS011;2151;50.988;11.068;2022-10-31T08:54:27;121.53;;;6.70;;
4274;SDS011;2151;50.988;11.068;2022-10-31T08:56:54;122.20;;;7.93;;
4274;SDS011;2151;50.988;11.068;2022-10-31T08:59:21;121.80;;;7.93;;
4274;SDS011;2151;50.988;11.068;2022-10-31T09:01:47;123.57;;;10.50;;
4274;SDS011;2151;50.988;11.068;2022-10-31T09:04:14;124.30;;;11.70;;
4274;SDS011;2151;50.988;11.068;2022-10-31T09:06:40;124.57;;;12.37;;
4274;SDS011;2151;50.988;11.068;2022-10-31T09:09:16;128.77;;;15.50;;
4274;SDS011;2151;50.988;11.068;2022-10-31T09:11:42;127.90;;;17.87;;
4274;SDS011;2151;50.988;11.068;2022-10-31T09:14:09;129.30;;;19.50;;
4274;SDS011;2151;50.988;11.068;2022-10-31T09:16:35;128.73;;;18.57;;
4274;SDS011;2151;50.988;11.068;2022-10-31T09:19:02;128.87;;;18.20;;
4274;SDS011;2151;50.988;11.068;2022-10-31T09:21:35;128.70;;;17.97;;
4274;SDS011;2151;50.988;11.068;2022-10-31T09:24:01;127.37;;;16.53;;
4274;SDS011;2151;50.988;11.068;2022-10-31T09:26:28;129.30;;;16.73;;
4274;SDS011;2151;50.988;11.068;2022-10-31T09:28:54;129.17;;;14.70;;
4274;SDS011;2151;50.988;11.068;2022-10-31T09:31:20;130.47;;;14.20;;
4274;SDS011;2151;50.988;11.068;2022-10-31T09:33:47;129.67;;;12.97;;
4274;SDS011;2151;50.988;11.068;2022-10-31T09:36:13;128.97;;;11.23;;
4274;SDS011;2151;50.988;11.068;2022-10-31T09:38:40;131.20;;;13.20;;
4274;SDS011;2151;50.988;11.068;2022-10-31T09:44:23;128.50;;;9.03;;
4274;SDS011;2151;50.988;11.068;2022-10-31T09:46:47;127.27;;;7.83;;
4274;SDS011;2151;50.988;11.068;2022-10-31T09:49:23;126.13;;;7.10;;
4274;SDS011;2151;50.988;11.068;2022-10-31T09:51:59;124.40;;;6.87;;
4274;SDS011;2151;50.988;11.068;2022-10-31T09:57:15;123.37;;;7.10;;
4274;SDS011;2151;50.988;11.068;2022-10-31T09:59:43;123.57;;;7.23;;
4274;SDS011;2151;50.988;11.068;2022-10-31T10:02:18;125.10;;;6.47;;
4274;SDS011;2151;50.988;11.068;2022-10-31T10:04:48;120.83;;;6.10;;
4274;SDS011;2151;50.988;11.068;2022-10-31T10:09:46;119.87;;;5.40;;
4274;SDS011;2151;50.988;11.068;2022-10-31T10:12:16;121.27;;;5.53;;
4274;SDS011;2151;50.988;11.068;2022-10-31T10:22:47;117.97;;;5.20;;
4274;SDS011;2151;50.988;11.068;2022-10-31T10:25:23;118.17;;;5.60;;
4274;SDS011;2151;50.988;11.068;2022-10-31T10:27:54;117.87;;;5.20;;
4274;SDS011;2151;50.988;11.068;2022-10-31T10:30:39;117.60;;;5.20;;
4274;SDS011;2151;50.988;11.068;2022-10-31T10:33:10;117.23;;;5.07;;
4274;SDS011;2151;50.988;11.068;2022-10-31T10:35:59;118.10;;;5.20;;
4274;SDS011;2151;50.988;11.068;2022-10-31T10:40:51;117.20;;;5.20;;
4274;SDS011;2151;50.988;11.068;2022-10-31T10:48:55;116.67;;;5.27;;
4274;SDS011;2151;50.988;11.068;2022-10-31T10:51:31;117.30;;;5.60;;
4274;SDS011;2151;50.988;11.068;2022-10-31T10:59:25;117.37;;;5.13;;
4274;SDS011;2151;50.988;11.068;2022-10-31T11:01:51;116.67;;;4.83;;
4274;SDS011;2151;50.988;11.068;2022-10-31T11:04:31;116.93;;;4.90;;
4274;SDS011;2151;50.988;11.068;2022-10-31T11:06:59;118.17;;;5.30;;
4274;SDS011;2151;50.988;11.068;2022-10-31T11:09:25;116.90;;;4.77;;
4274;SDS011;2151;50.988;11.068;2022-10-31T11:11:51;116.10;;;4.60;;
4274;SDS011;2151;50.988;11.068;2022-10-31T11:14:18;117.90;;;5.30;;
4274;SDS011;2151;50.988;11.068;2022-10-31T11:16:45;116.73;;;5.17;;
4274;SDS011;2151;50.988;11.068;2022-10-31T11:19:16;117.00;;;5.37;;
4274;SDS011;2151;50.988;11.068;2022-10-31T11:21:43;116.67;;;4.90;;
4274;SDS011;2151;50.988;11.068;2022-10-31T11:24:20;116.77;;;5.30;;
4274;SDS011;2151;50.988;11.068;2022-10-31T11:26:47;116.97;;;5.10;;
4274;SDS011;2151;50.988;11.068;2022-10-31T11:29:22;116.80;;;5.00;;
4274;SDS011;2151;50.988;11.068;2022-10-31T11:31:49;117.27;;;5.00;;
4274;SDS011;2151;50.988;11.068;2022-10-31T11:34:35;116.37;;;4.77;;
4274;SDS011;2151;50.988;11.068;2022-10-31T11:37:04;116.47;;;4.77;;
4274;SDS011;2151;50.988;11.068;2022-10-31T11:39:38;118.17;;;5.60;;
4274;SDS011;2151;50.988;11.068;2022-10-31T11:42:06;118.40;;;6.00;;
4274;SDS011;2151;50.988;11.068;2022-10-31T11:44:34;117.00;;;5.03;;
4274;SDS011;2151;50.988;11.068;2022-10-31T11:47:01;117.77;;;5.37;;
4274;SDS011;2151;50.988;11.068;2022-10-31T11:49:39;117.53;;;5.20;;
4274;SDS011;2151;50.988;11.068;2022-10-31T11:52:06;116.77;;;4.90;;
4274;SDS011;2151;50.988;11.068;2022-10-31T11:54:38;116.57;;;4.90;;
4274;SDS011;2151;50.988;11.068;2022-10-31T11:57:20;117.37;;;5.37;;
4274;SDS011;2151;50.988;11.068;2022-10-31T11:59:51;119.27;;;5.10;;
4274;SDS011;2151;50.988;11.068;2022-10-31T12:02:18;117.10;;;5.10;;
4274;SDS011;2151;50.988;11.068;2022-10-31T12:04:46;118.67;;;5.47;;
4274;SDS011;2151;50.988;11.068;2022-10-31T12:07:13;117.17;;;4.93;;
4274;SDS011;2151;50.988;11.068;2022-10-31T12:09:40;119.30;;;5.30;;
4274;SDS011;2151;50.988;11.068;2022-10-31T12:17:19;118.20;;;5.57;;
4274;SDS011;2151;50.988;11.068;2022-10-31T12:24:54;117.47;;;5.20;;
4274;SDS011;2151;50.988;11.068;2022-10-31T12:30:20;117.30;;;5.30;;
4274;SDS011;2151;50.988;11.068;2022-10-31T12:32:57;118.03;;;5.23;;
4274;SDS011;2151;50.988;11.068;2022-10-31T12:45:57;117.27;;;5.07;;
4274;SDS011;2151;50.988;11.068;2022-10-31T12:51:04;119.27;;;5.90;;
4274;SDS011;2151;50.988;11.068;2022-10-31T12:53:40;117.00;;;5.00;;
4274;SDS011;2151;50.988;11.068;2022-10-31T12:56:14;116.80;;;5.20;;
4274;SDS011;2151;50.988;11.068;2022-10-31T12:58:47;116.37;;;4.63;;
4274;SDS011;2151;50.988;11.068;2022-10-31T13:01:30;116.17;;;4.67;;
4274;SDS011;2151;50.988;11.068;2022-10-31T13:04:03;116.17;;;4.57;;
4274;SDS011;2151;50.988;11.068;2022-10-31T13:07:05;116.30;;;4.67;;
4274;SDS011;2151;50.988;11.068;2022-10-31T13:09:27;116.77;;;4.80;;
4274;SDS011;2151;50.988;11.068;2022-10-31T13:11:58;115.57;;;4.67;;
4274;SDS011;2151;50.988;11.068;2022-10-31T13:16:52;116.67;;;5.20;;
4274;SDS011;2151;50.988;11.068;2022-10-31T13:19:22;116.57;;;4.80;;
4274;SDS011;2151;50.988;11.068;2022-10-31T13:24:25;116.07;;;4.90;;
4274;SDS011;2151;50.988;11.068;2022-10-31T13:26:54;115.97;;;4.70;;
4274;SDS011;2151;50.988;11.068;2022-10-31T13:29:23;119.17;;;6.27;;
4274;SDS011;2151;50.988;11.068;2022-10-31T13:31:56;117.10;;;5.20;;
4274;SDS011;2151;50.988;11.068;2022-10-31T13:34:28;115.60;;;4.80;;
4274;SDS011;2151;50.988;11.068;2022-10-31T13:37:09;116.17;;;4.80;;
4274;SDS011;2151;50.988;11.068;2022-10-31T13:40:21;116.67;;;4.90;;
4274;SDS011;2151;50.988;11.068;2022-10-31T13:45:10;116.70;;;5.10;;
4274;SDS011;2151;50.988;11.068;2022-10-31T13:47:37;116.00;;;4.80;;
4274;SDS011;2151;50.988;11.068;2022-10-31T13:52:45;116.50;;;4.80;;
4274;SDS011;2151;50.988;11.068;2022-10-31T13:55:34;118.20;;;5.30;;
4274;SDS011;2151;50.988;11.068;2022-10-31T13:58:03;116.00;;;4.73;;
4274;SDS011;2151;50.988;11.068;2022-10-31T14:00:30;116.93;;;4.80;;
4274;SDS011;2151;50.988;11.068;2022-10-31T14:03:01;116.20;;;4.80;;
4274;SDS011;2151;50.988;11.068;2022-10-31T14:05:29;116.10;;;4.17;;
4274;SDS011;2151;50.988;11.068;2022-10-31T14:07:56;116.37;;;4.87;;
4274;SDS011;2151;50.988;11.068;2022-10-31T14:10:28;117.07;;;5.00;;
4274;SDS011;2151;50.988;11.068;2022-10-31T14:13:03;116.33;;;4.67;;
4274;SDS011;2151;50.988;11.068;2022-10-31T14:15:30;116.60;;;4.70;;
4274;SDS011;2151;50.988;11.068;2022-10-31T14:17:58;116.90;;;4.93;;
4274;SDS011;2151;50.988;11.068;2022-10-31T14:20:42;116.93;;;5.03;;
4274;SDS011;2151;50.988;11.068;2022-10-31T14:23:12;117.03;;;4.93;;
4274;SDS011;2151;50.988;11.068;2022-10-31T14:25:39;116.67;;;4.87;;
4274;SDS011;2151;50.988;11.068;2022-10-31T14:28:22;115.97;;;4.57;;
4274;SDS011;2151;50.988;11.068;2022-10-31T14:30:57;117.00;;;4.77;;
4274;SDS011;2151;50.988;11.068;2022-10-31T14:33:25;118.50;;;5.23;;
4274;SDS011;2151;50.988;11.068;2022-10-31T14:51:48;118.00;;;4.93;;
4274;SDS011;2151;50.988;11.068;2022-10-31T14:54:20;119.20;;;6.20;;
4274;SDS011;2151;50.988;11.068;2022-10-31T14:56:50;119.27;;;5.30;;
4274;SDS011;2151;50.988;11.068;2022-10-31T14:59:18;118.93;;;5.30;;
4274;SDS011;2151;50.988;11.068;2022-10-31T15:02:21;118.57;;;4.93;;
4274;SDS011;2151;50.988;11.068;2022-10-31T15:04:38;119.37;;;5.30;;
4274;SDS011;2151;50.988;11.068;2022-10-31T15:07:16;119.40;;;5.30;;
4274;SDS011;2151;50.988;11.068;2022-10-31T15:10:00;122.00;;;7.03;;
4274;SDS011;2151;50.988;11.068;2022-10-31T15:12:27;119.80;;;5.20;;
4274;SDS011;2151;50.988;11.068;2022-10-31T15:14:54;120.63;;;5.63;;
4274;SDS011;2151;50.988;11.068;2022-10-31T15:17:22;121.57;;;6.13;;
4274;SDS011;2151;50.988;11.068;2022-10-31T15:19:49;121.60;;;6.00;;
4274;SDS011;2151;50.988;11.068;2022-10-31T15:22:17;122.80;;;6.17;;
4274;SDS011;2151;50.988;11.068;2022-10-31T15:24:43;122.80;;;6.60;;
4274;SDS011;2151;50.988;11.068;2022-10-31T15:27:14;123.70;;;7.30;;
4274;SDS011;2151;50.988;11.068;2022-10-31T15:29:51;124.00;;;7.10;;
4274;SDS011;2151;50.988;11.068;2022-10-31T15:32:22;126.10;;;7.70;;
4274;SDS011;2151;50.988;11.068;2022-10-31T15:34:49;124.27;;;7.23;;
4274;SDS011;2151;50.988;11.068;2022-10-31T15:37:18;125.07;;;7.87;;
4274;SDS011;2151;50.988;11.068;2022-10-31T15:39:45;124.77;;;7.57;;
4274;SDS011;2151;50.988;11.068;2022-10-31T15:44:46;127.90;;;8.20;;
4274;SDS011;2151;50.988;11.068;2022-10-31T15:47:17;127.20;;;8.70;;
4274;SDS011;2151;50.988;11.068;2022-10-31T15:49:48;125.43;;;7.57;;
4274;SDS011;2151;50.988;11.068;2022-10-31T15:52:25;125.40;;;7.37;;
4274;SDS011;2151;50.988;11.068;2022-10-31T15:54:53;130.87;;;7.77;;
4274;SDS011;2151;50.988;11.068;2022-10-31T15:57:22;127.47;;;8.17;;
4274;SDS011;2151;50.988;11.068;2022-10-31T15:59:49;127.30;;;7.90;;
4274;SDS011;2151;50.988;11.068;2022-10-31T16:02:19;128.20;;;8.17;;
4274;SDS011;2151;50.988;11.068;2022-10-31T16:04:48;129.03;;;8.60;;
4274;SDS011;2151;50.988;11.068;2022-10-31T16:07:15;130.40;;;9.50;;
4274;SDS011;2151;50.988;11.068;2022-10-31T16:09:49;129.23;;;9.20;;
4274;SDS011;2151;50.988;11.068;2022-10-31T16:12:16;129.87;;;9.30;;
4274;SDS011;2151;50.988;11.068;2022-10-31T16:14:47;130.67;;;10.60;;
4274;SDS011;2151;50.988;11.068;2022-10-31T16:17:15;131.60;;;11.00;;
4274;SDS011;2151;50.988;11.068;2022-10-31T16:19:52;131.47;;;11.13;;
4274;SDS011;2151;50.988;11.068;2022-10-31T16:22:22;131.90;;;11.63;;
4274;SDS011;2151;50.988;11.068;2022-10-31T16:24:51;132.37;;;12.47;;
4274;SDS011;2151;50.988;11.068;2022-10-31T16:27:20;131.20;;;12.27;;
4274;SDS011;2151;50.988;11.068;2022-10-31T16:29:51;134.17;;;12.60;;
4274;SDS011;2151;50.988;11.068;2022-10-31T16:37:25;131.63;;;13.37;;
4274;SDS011;2151;50.988;11.068;2022-10-31T16:39:52;134.53;;;14.40;;
4274;SDS011;2151;50.988;11.068;2022-10-31T16:42:19;131.93;;;14.30;;
4274;SDS011;2151;50.988;11.068;2022-10-31T16:44:46;132.87;;;14.23;;
4274;SDS011;2151;50.988;11.068;2022-10-31T16:47:14;132.00;;;14.20;;